Time;durP1;ratioP1;P1;durP2;ratioP2;P2;SDS_P1;SDS_P2;PMS_P1;PMS_P2;Temp;Humidity;BMP_temperature;BMP_pressure;BME280_temperature;BME280_humidity;BME280_pressure;Samples;Min_cycle;Max_cycle;Signal;HPM_P1;HPM_P2
2021/07/07 00:00:31;;;;;;;;;;;;;;;;;;2141717;66;1202;-68
2021/07/07 00:02:56;;;;;;;;;;;;;;;;;;2142121;66;1165;-69
2021/07/07 00:05:22;;;;;;;;;;;;;;;;;;2143031;66;1049;-68
2021/07/07 00:07:47;;;;;;;;;;;;;;;;;;2142844;59;1202;-69
2021/07/07 00:10:14;;;;;;;;;;;;;;;;;;2142638;59;1942;-69
2021/07/07 00:12:39;;;;;;;;;;;;;;;;;;2141411;66;1164;-68
2021/07/07 00:15:06;;;;;;;;;;;;;;;;;;2142214;59;1273;-69
2021/07/07 00:17:31;;;;;;;;;;;;;;;;;;2143707;66;1187;-68
2021/07/07 00:19:57;;;;;;;;;;;;;;;;;;2142959;66;1158;-68
2021/07/07 00:22:22;;;;;;;;;;;;;;;;;;2143486;66;1212;-68
2021/07/07 00:24:47;;;;;;;;;;;;;;;;;;2143836;66;1134;-69
2021/07/07 00:27:13;;;;;;;;;;;;;;;;;;2143379;59;1091;-69
2021/07/07 00:29:38;;;;;;;;;;;;;;;;;;2143046;59;1713;-68
2021/07/07 00:32:04;;;;;;;;;;;;;;;;;;2142886;59;1933;-68
2021/07/07 00:34:29;;;;;;;;;;;;;;;;;;2139526;66;1141;-68
2021/07/07 00:36:54;;;;;;;;;;;;;;;;;;2142634;66;1175;-68
2021/07/07 00:39:19;;;;;;;;;;;;;;;;;;2143845;67;1213;-69
2021/07/07 00:41:44;;;;;;;;;;;;;;;;;;2142267;67;1233;-68
2021/07/07 00:44:10;;;;;;;;;;;;;;;;;;2143245;67;1165;-68
2021/07/07 00:46:37;;;;;;;;;;;;;;;;;;2143345;66;1251;-68
2021/07/07 00:49:02;;;;;;;;;;;;;;;;;;2142964;67;1604;-68
2021/07/07 00:51:27;;;;;;;;;;;;;;;;;;2144488;66;1935;-68
2021/07/07 00:53:54;;;;;;;;;;;;;;;;;;2143367;67;1268;-70
2021/07/07 00:56:19;;;;;;;;;;;;;;;;;;2143575;66;1592;-69
2021/07/07 00:58:51;;;;;;;;;;;;;;;;;;2143424;66;1266;-70
2021/07/07 01:01:17;;;;;;;;;;;;;;;;;;2143202;66;1402;-69
2021/07/07 01:03:42;;;;;;;;;;;;;;;;;;2144334;67;1235;-70
2021/07/07 01:06:07;;;;;;;;;;;;;;;;;;2143162;66;1199;-70
2021/07/07 01:08:32;;;;;;;;;;;;;;;;;;2143818;59;1520;-70
2021/07/07 01:10:58;;;;;;;;;;;;;;;;;;2142850;66;1928;-68
2021/07/07 01:13:23;;;;;;;;;;;;;;;;;;2144112;66;1175;-68
2021/07/07 01:15:49;;;;;;;;;;;;;;;;;;2143516;59;1350;-69
2021/07/07 01:18:15;;;;;;;;;;;;;;;;;;2143867;66;1216;-70
2021/07/07 01:20:40;;;;;;;;;;;;;;;;;;2142246;59;1227;-70
2021/07/07 01:23:06;;;;;;;;;;;;;;;;;;2143394;66;1175;-69
2021/07/07 01:25:32;;;;;;;;;;;;;;;;;;2143765;66;1151;-67
2021/07/07 01:28:01;;;;;;;;;;;;;;;;;;2143697;66;1168;-69
2021/07/07 01:30:26;;;;;;;;;;;;;;;;;;2143379;59;2000;-69
2021/07/07 01:32:52;;;;;;;;;;;;;;;;;;2143567;66;1641;-70
2021/07/07 01:35:18;;;;;;;;;;;;;;;;;;2143145;66;1333;-70
2021/07/07 01:37:44;;;;;;;;;;;;;;;;;;2143747;66;1198;-70
2021/07/07 01:40:11;;;;;;;;;;;;;;;;;;2143571;66;1274;-70
2021/07/07 01:42:36;;;;;;;;;;;;;;;;;;2143554;66;2005;-70
2021/07/07 01:45:04;;;;;;;;;;;;;;;;;;2143361;66;1167;-70
2021/07/07 01:47:29;;;;;;;;;;;;;;;;;;2142363;59;2425;-69
2021/07/07 01:49:54;;;;;;;;;;;;;;;;;;2143406;66;1982;-68
2021/07/07 01:52:19;;;;;;;;;;;;;;;;;;2143220;66;1219;-70
2021/07/07 01:54:45;;;;;;;;;;;;;;;;;;2143312;66;1218;-69
2021/07/07 01:57:10;;;;;;;;;;;;;;;;;;2143303;59;1158;-70
2021/07/07 01:59:35;;;;;;;;;;;;;;;;;;2142927;66;1268;-70
2021/07/07 02:02:00;;;;;;;;;;;;;;;;;;2143772;59;1257;-70
2021/07/07 02:04:25;;;;;;;;;;;;;;;;;;2142993;59;1266;-69
2021/07/07 02:06:51;;;;;;;;;;;;;;;;;;2143455;59;1252;-70
2021/07/07 02:09:19;;;;;;;;;;;;;;;;;;2141927;66;1213;-70
2021/07/07 02:11:44;;;;;;;;;;;;;;;;;;2143429;66;1990;-69
2021/07/07 02:14:09;;;;;;;;;;;;;;;;;;2143190;66;1325;-68
2021/07/07 02:16:34;;;;;;;;;;;;;;;;;;2143169;59;1251;-69
2021/07/07 02:19:00;;;;;;;;;;;;;;;;;;2143171;66;1213;-68
2021/07/07 02:21:25;;;;;;;;;;;;;;;;;;2142579;66;1205;-69
2021/07/07 02:23:50;;;;;;;;;;;;;;;;;;2143449;66;1160;-67
2021/07/07 02:26:15;;;;;;;;;;;;;;;;;;2142814;66;1077;-68
2021/07/07 02:28:41;;;;;;;;;;;;;;;;;;2143149;66;1385;-68
2021/07/07 02:31:06;;;;;;;;;;;;;;;;;;2143919;53;2138;-67
2021/07/07 02:33:31;;;;;;;;;;;;;;;;;;2144619;59;1228;-67
2021/07/07 02:35:56;;;;;;;;;;;;;;;;;;2144850;59;1400;-69
2021/07/07 02:38:23;;;;;;;;;;;;;;;;;;2146478;66;1187;-67
2021/07/07 02:40:49;;;;;;;;;;;;;;;;;;2145753;59;1490;-70
2021/07/07 02:43:14;;;;;;;;;;;;;;;;;;2143318;66;1234;-69
2021/07/07 02:45:40;;;;;;;;;;;;;;;;;;2143361;66;1161;-67
2021/07/07 02:48:06;;;;;;;;;;;;;;;;;;2141792;59;1216;-70
2021/07/07 02:50:32;;;;;;;;;;;;;;;;;;2141442;66;1924;-71
2021/07/07 02:52:57;;;;;;;;;;;;;;;;;;2142659;66;1259;-70
2021/07/07 02:55:23;;;;;;;;;;;;;;;;;;2142598;66;2061;-71
2021/07/07 02:58:05;;;;;;;;;;;;;;;;;;2141356;66;1190;-67
2021/07/07 03:00:30;;;;;;;;;;;;;;;;;;2141397;66;1217;-69
2021/07/07 03:02:56;;;;;;;;;;;;;;;;;;2141036;66;1085;-69
2021/07/07 03:05:22;;;;;;;;;;;;;;;;;;2139776;59;2005;-70
2021/07/07 03:07:47;;;;;;;;;;;;;;;;;;2141385;59;1342;-68
2021/07/07 03:10:12;;;;;;;;;;;;;;;;;;2143017;66;1940;-71
2021/07/07 03:12:37;;;;;;;;;;;;;;;;;;2144499;66;1363;-69
2021/07/07 03:15:04;;;;;;;;;;;;;;;;;;2143437;59;1263;-69
2021/07/07 03:17:29;;;;;;;;;;;;;;;;;;2143557;66;1426;-69
2021/07/07 03:19:54;;;;;;;;;;;;;;;;;;2144203;66;1167;-71
2021/07/07 03:22:19;;;;;;;;;;;;;;;;;;2143837;66;1307;-70
2021/07/07 03:24:45;;;;;;;;;;;;;;;;;;2142808;66;1265;-72
2021/07/07 03:27:10;;;;;;;;;;;;;;;;;;2143781;66;1203;-71
2021/07/07 03:29:35;;;;;;;;;;;;;;;;;;2142975;66;1300;-70
2021/07/07 03:32:00;;;;;;;;;;;;;;;;;;2142855;59;1919;-70
2021/07/07 03:34:25;;;;;;;;;;;;;;;;;;2140963;66;1349;-70
2021/07/07 03:36:51;;;;;;;;;;;;;;;;;;2140565;66;1196;-71
2021/07/07 03:39:16;;;;;;;;;;;;;;;;;;2143375;66;1164;-69
2021/07/07 03:41:41;;;;;;;;;;;;;;;;;;2142536;66;1223;-74
2021/07/07 03:44:06;;;;;;;;;;;;;;;;;;2142750;66;1146;-70
2021/07/07 03:46:31;;;;;;;;;;;;;;;;;;2142510;66;1172;-72
2021/07/07 03:48:57;;;;;;;;;;;;;;;;;;2142829;66;2294;-72
2021/07/07 03:51:22;;;;;;;;;;;;;;;;;;2142341;66;1921;-72
2021/07/07 03:53:47;;;;;;;;;;;;;;;;;;2142544;66;1020;-69
2021/07/07 03:56:12;;;;;;;;;;;;;;;;;;2142513;66;1203;-69
2021/07/07 03:58:37;;;;;;;;;;;;;;;;;;2142503;66;1205;-70
2021/07/07 04:01:03;;;;;;;;;;;;;;;;;;2143205;66;1360;-70
2021/07/07 04:03:28;;;;;;;;;;;;;;;;;;2143240;66;1151;-72
2021/07/07 04:05:53;;;;;;;;;;;;;;;;;;2142344;59;1224;-70
2021/07/07 04:08:18;;;;;;;;;;;;;;;;;;2141751;66;1359;-70
2021/07/07 04:10:44;;;;;;;;;;;;;;;;;;2143359;66;1926;-69
2021/07/07 04:13:09;;;;;;;;;;;;;;;;;;2142282;66;1238;-68
2021/07/07 04:15:34;;;;;;;;;;;;;;;;;;2141270;59;1322;-71
2021/07/07 04:17:59;;;;;;;;;;;;;;;;;;2144213;66;1253;-71
2021/07/07 04:20:25;;;;;;;;;;;;;;;;;;2142327;66;1210;-71
2021/07/07 04:22:50;;;;;;;;;;;;;;;;;;2144199;66;1191;-70
2021/07/07 04:25:16;;;;;;;;;;;;;;;;;;2142783;66;1235;-69
2021/07/07 04:27:41;;;;;;;;;;;;;;;;;;2142820;66;1131;-70
2021/07/07 04:30:08;;;;;;;;;;;;;;;;;;2143319;59;1920;-68
2021/07/07 04:32:33;;;;;;;;;;;;;;;;;;2142773;59;1199;-70
2021/07/07 04:34:58;;;;;;;;;;;;;;;;;;2143078;66;1203;-70
2021/07/07 04:37:23;;;;;;;;;;;;;;;;;;2142950;66;1219;-71
2021/07/07 04:39:49;;;;;;;;;;;;;;;;;;2142828;66;1210;-70
2021/07/07 04:42:14;;;;;;;;;;;;;;;;;;2143001;67;1253;-71
2021/07/07 04:44:39;;;;;;;;;;;;;;;;;;2142895;66;1182;-71
2021/07/07 04:47:04;;;;;;;;;;;;;;;;;;2142306;67;1137;-70
2021/07/07 04:49:29;;;;;;;;;;;;;;;;;;2143774;67;1659;-69
2021/07/07 04:51:55;;;;;;;;;;;;;;;;;;2142538;67;1937;-71
2021/07/07 04:54:20;;;;;;;;;;;;;;;;;;2143491;67;1163;-69
2021/07/07 04:56:45;;;;;;;;;;;;;;;;;;2142555;67;1168;-68
2021/07/07 04:59:10;;;;;;;;;;;;;;;;;;2143968;67;1166;-71
2021/07/07 05:01:38;;;;;;;;;;;;;;;;;;2141836;67;1224;-70
2021/07/07 05:04:03;;;;;;;;;;;;;;;;;;2142182;67;1153;-69
2021/07/07 05:06:29;;;;;;;;;;;;;;;;;;2142544;67;1198;-71
2021/07/07 05:08:54;;;;;;;;;;;;;;;;;;2142772;59;1617;-70
2021/07/07 05:11:19;;;;;;;;;;;;;;;;;;2142390;67;1983;-69
2021/07/07 05:13:45;;;;;;;;;;;;;;;;;;2143924;67;1074;-70
2021/07/07 05:16:11;;;;;;;;;;;;;;;;;;2137768;59;1589;-69
2021/07/07 05:18:37;;;;;;;;;;;;;;;;;;2143780;67;1243;-70
2021/07/07 05:21:02;;;;;;;;;;;;;;;;;;2142244;67;1174;-72
2021/07/07 05:23:27;;;;;;;;;;;;;;;;;;2143611;67;1136;-70
2021/07/07 05:25:52;;;;;;;;;;;;;;;;;;2142762;67;1060;-72
2021/07/07 05:28:18;;;;;;;;;;;;;;;;;;2142940;67;1150;-69
2021/07/07 05:30:43;;;;;;;;;;;;;;;;;;2143495;59;2096;-70
2021/07/07 05:33:09;;;;;;;;;;;;;;;;;;2142796;67;1353;-71
2021/07/07 05:35:38;;;;;;;;;;;;;;;;;;2141931;67;1584;-71
2021/07/07 05:38:04;;;;;;;;;;;;;;;;;;2142696;67;1183;-70
2021/07/07 05:40:29;;;;;;;;;;;;;;;;;;2143388;67;1220;-71
2021/07/07 05:42:54;;;;;;;;;;;;;;;;;;2142631;67;1211;-70
2021/07/07 05:45:20;;;;;;;;;;;;;;;;;;2143186;67;1218;-72
2021/07/07 05:47:46;;;;;;;;;;;;;;;;;;2144044;59;1337;-72
2021/07/07 05:50:11;;;;;;;;;;;;;;;;;;2143155;67;1986;-70
2021/07/07 05:52:36;;;;;;;;;;;;;;;;;;2142459;67;1182;-70
2021/07/07 05:55:02;;;;;;;;;;;;;;;;;;2143836;66;1141;-72
2021/07/07 05:57:37;;;;;;;;;;;;;;;;;;2142512;66;1162;-71
2021/07/07 06:00:08;;;;;;;;;;;;;;;;;;2143945;66;1180;-71
2021/07/07 06:02:33;;;;;;;;;;;;;;;;;;2142513;66;1183;-69
2021/07/07 06:04:59;;;;;;;;;;;;;;;;;;2144349;66;1155;-69
2021/07/07 06:07:24;;;;;;;;;;;;;;;;;;2142142;66;1187;-68
2021/07/07 06:09:49;;;;;;;;;;;;;;;;;;2143030;66;1134;-69
2021/07/07 06:12:14;;;;;;;;;;;;;;;;;;2143063;66;1936;-68
2021/07/07 06:14:39;;;;;;;;;;;;;;;;;;2143704;59;1259;-69
2021/07/07 06:17:04;;;;;;;;;;;;;;;;;;2143400;59;1532;-70
2021/07/07 06:19:30;;;;;;;;;;;;;;;;;;2143786;66;1231;-69
2021/07/07 06:21:57;;;;;;;;;;;;;;;;;;2143318;66;1221;-70
2021/07/07 06:24:22;;;;;;;;;;;;;;;;;;2143537;66;1238;-70
2021/07/07 06:26:47;;;;;;;;;;;;;;;;;;2143139;66;1148;-70
2021/07/07 06:29:14;;;;;;;;;;;;;;;;;;2143086;59;1327;-70
2021/07/07 06:31:39;;;;;;;;;;;;;;;;;;2143356;59;1913;-70
2021/07/07 06:34:05;;;;;;;;;;;;;;;;;;2141501;66;1251;-70
2021/07/07 06:36:30;;;;;;;;;;;;;;;;;;2142547;66;1654;-69
2021/07/07 06:38:55;;;;;;;;;;;;;;;;;;2142678;66;1147;-70
2021/07/07 06:41:20;;;;;;;;;;;;;;;;;;2143302;66;1269;-70
2021/07/07 06:43:46;;;;;;;;;;;;;;;;;;2140127;59;1915;-70
2021/07/07 06:46:11;;;;;;;;;;;;;;;;;;2142033;66;1263;-71
2021/07/07 06:48:36;;;;;;;;;;;;;;;;;;2142906;66;1393;-70
2021/07/07 06:51:02;;;;;;;;;;;;;;;;;;2143140;66;1998;-70
2021/07/07 06:53:27;;;;;;;;;;;;;;;;;;2142872;66;1168;-70
2021/07/07 06:55:52;;;;;;;;;;;;;;;;;;2143843;66;1243;-71
2021/07/07 06:58:18;;;;;;;;;;;;;;;;;;2142851;66;1163;-70
2021/07/07 07:00:43;;;;;;;;;;;;;;;;;;2142801;66;1254;-70
2021/07/07 07:03:08;;;;;;;;;;;;;;;;;;2141550;66;1142;-70
2021/07/07 07:05:34;;;;;;;;;;;;;;;;;;2144527;66;1197;-71
2021/07/07 07:08:00;;;;;;;;;;;;;;;;;;2141169;59;1373;-69
2021/07/07 07:10:25;;;;;;;;;;;;;;;;;;2144143;66;1921;-69
2021/07/07 07:12:50;;;;;;;;;;;;;;;;;;2143216;66;1155;-71
2021/07/07 07:15:16;;;;;;;;;;;;;;;;;;2141794;59;1359;-69
2021/07/07 07:17:41;;;;;;;;;;;;;;;;;;2143548;66;1211;-69
2021/07/07 07:20:08;;;;;;;;;;;;;;;;;;2143006;66;1215;-69
2021/07/07 07:22:33;;;;;;;;;;;;;;;;;;2143402;66;1253;-70
2021/07/07 07:24:58;;;;;;;;;;;;;;;;;;2143231;66;1144;-70
2021/07/07 07:27:24;;;;;;;;;;;;;;;;;;2143026;66;1150;-70
2021/07/07 07:29:49;;;;;;;;;;;;;;;;;;2143605;66;1261;-70
2021/07/07 07:32:15;;;;;;;;;;;;;;;;;;2141758;59;1929;-70
2021/07/07 07:34:40;;;;;;;;;;;;;;;;;;2139781;66;1634;-70
2021/07/07 07:37:06;;;;;;;;;;;;;;;;;;2142775;66;1204;-69
2021/07/07 07:39:44;;;;;;;;;;;;;;;;;;2143414;66;1159;-69
2021/07/07 07:42:11;;;;;;;;;;;;;;;;;;2143135;66;1284;-71
2021/07/07 07:44:37;;;;;;;;;;;;;;;;;;2143209;66;1120;-69
2021/07/07 07:47:02;;;;;;;;;;;;;;;;;;2143251;66;1318;-69
2021/07/07 07:49:27;;;;;;;;;;;;;;;;;;2140747;66;1986;-68
2021/07/07 07:51:52;;;;;;;;;;;;;;;;;;2140974;66;1935;-68
2021/07/07 07:54:18;;;;;;;;;;;;;;;;;;2141683;66;1278;-69
2021/07/07 07:56:43;;;;;;;;;;;;;;;;;;2142684;66;1485;-69
2021/07/07 07:59:08;;;;;;;;;;;;;;;;;;2142543;66;1200;-68
2021/07/07 08:01:34;;;;;;;;;;;;;;;;;;2143170;66;1219;-68
2021/07/07 08:04:00;;;;;;;;;;;;;;;;;;2143130;66;1397;-68
2021/07/07 08:06:25;;;;;;;;;;;;;;;;;;2140938;59;1985;-68
2021/07/07 08:08:52;;;;;;;;;;;;;;;;;;2142210;66;1305;-68
2021/07/07 08:11:17;;;;;;;;;;;;;;;;;;2142697;66;1919;-68
2021/07/07 08:13:42;;;;;;;;;;;;;;;;;;2141611;66;1042;-68
2021/07/07 08:16:07;;;;;;;;;;;;;;;;;;2143385;59;1583;-68
2021/07/07 08:18:33;;;;;;;;;;;;;;;;;;2141248;66;1885;-69
2021/07/07 08:20:58;;;;;;;;;;;;;;;;;;2141098;66;1187;-68
2021/07/07 08:23:23;;;;;;;;;;;;;;;;;;2139915;66;1952;-67
2021/07/07 08:25:49;;;;;;;;;;;;;;;;;;2141068;66;1211;-68
2021/07/07 08:28:14;;;;;;;;;;;;;;;;;;2142514;66;1200;-68
2021/07/07 08:30:39;;;;;;;;;;;;;;;;;;2140139;59;2234;-67
2021/07/07 08:33:05;;;;;;;;;;;;;;;;;;2139249;59;1200;-70
2021/07/07 08:35:30;;;;;;;;;;;;;;;;;;2141504;59;1467;-67
2021/07/07 08:37:55;;;;;;;;;;;;;;;;;;2143495;66;1064;-68
2021/07/07 08:40:22;;;;;;;;;;;;;;;;;;2141220;59;1348;-68
2021/07/07 08:42:48;;;;;;;;;;;;;;;;;;2141279;67;1017;-70
2021/07/07 08:45:14;;;;;;;;;;;;;;;;;;2140608;59;1879;-67
2021/07/07 08:47:44;;;;;;;;;;;;;;;;;;2140582;59;1153;-67
2021/07/07 08:50:11;;;;;;;;;;;;;;;;;;2139942;67;1962;-69
2021/07/07 08:52:37;;;;;;;;;;;;;;;;;;2140108;67;1141;-69
2021/07/07 08:55:02;;;;;;;;;;;;;;;;;;2141091;67;1234;-70
2021/07/07 08:57:27;;;;;;;;;;;;;;;;;;2141435;59;2043;-68
2021/07/07 08:59:53;;;;;;;;;;;;;;;;;;2138517;59;1445;-70
2021/07/07 09:02:19;;;;;;;;;;;;;;;;;;2141493;59;1449;-70
2021/07/07 09:04:44;;;;;;;;;;;;;;;;;;2139308;59;1879;-68
2021/07/07 09:07:15;;;;;;;;;;;;;;;;;;2137759;59;2156;-69
2021/07/07 09:09:44;;;;;;;;;;;;;;;;;;2137788;59;2242;-69
2021/07/07 09:12:12;;;;;;;;;;;;;;;;;;2138734;67;1936;-68
2021/07/07 09:14:37;;;;;;;;;;;;;;;;;;2139117;59;1808;-68
2021/07/07 09:17:09;;;;;;;;;;;;;;;;;;2140849;59;1505;-67
2021/07/07 09:19:37;;;;;;;;;;;;;;;;;;2142239;67;1198;-68
2021/07/07 09:22:06;;;;;;;;;;;;;;;;;;2141605;67;1183;-69
2021/07/07 09:24:32;;;;;;;;;;;;;;;;;;2140790;67;1157;-68
2021/07/07 09:26:58;;;;;;;;;;;;;;;;;;2142099;67;1040;-68
2021/07/07 09:29:43;;;;;;;;;;;;;;;;;;2143926;67;1250;-66
2021/07/07 09:32:15;;;;;;;;;;;;;;;;;;2141513;59;1995;-68
2021/07/07 09:34:41;;;;;;;;;;;;;;;;;;2141873;66;1697;-69
2021/07/07 09:37:07;;;;;;;;;;;;;;;;;;2143404;66;1209;-69
2021/07/07 09:39:32;;;;;;;;;;;;;;;;;;2143398;66;1137;-71
2021/07/07 09:41:58;;;;;;;;;;;;;;;;;;2143534;66;1273;-72
2021/07/07 09:44:23;;;;;;;;;;;;;;;;;;2143564;66;1151;-73
2021/07/07 09:46:48;;;;;;;;;;;;;;;;;;2143273;59;1271;-71
2021/07/07 09:49:13;;;;;;;;;;;;;;;;;;2143847;66;1210;-71
2021/07/07 09:51:44;;;;;;;;;;;;;;;;;;2142950;66;1924;-70
2021/07/07 09:54:09;;;;;;;;;;;;;;;;;;2143944;66;1001;-71
2021/07/07 09:56:34;;;;;;;;;;;;;;;;;;2143353;66;1171;-71
2021/07/07 09:59:00;;;;;;;;;;;;;;;;;;2144265;66;1148;-70
2021/07/07 10:01:26;;;;;;;;;;;;;;;;;;2142503;66;1343;-69
2021/07/07 10:03:52;;;;;;;;;;;;;;;;;;2142701;66;1168;-69
2021/07/07 10:06:17;;;;;;;;;;;;;;;;;;2140307;59;1831;-69
2021/07/07 10:08:43;;;;;;;;;;;;;;;;;;2142265;66;1741;-69
2021/07/07 10:11:08;;;;;;;;;;;;;;;;;;2144027;66;1937;-70
2021/07/07 10:13:33;;;;;;;;;;;;;;;;;;2144243;66;1695;-71
2021/07/07 10:15:59;;;;;;;;;;;;;;;;;;2142608;59;1568;-70
2021/07/07 10:18:24;;;;;;;;;;;;;;;;;;2144336;66;1087;-73
2021/07/07 10:20:51;;;;;;;;;;;;;;;;;;2143324;66;1591;-70
2021/07/07 10:23:18;;;;;;;;;;;;;;;;;;2140360;59;1268;-68
2021/07/07 10:25:44;;;;;;;;;;;;;;;;;;2143426;66;1147;-71
2021/07/07 10:28:10;;;;;;;;;;;;;;;;;;2143287;66;1212;-74
2021/07/07 10:30:54;;;;;;;;;;;;;;;;;;2143224;59;1921;-70
2021/07/07 10:33:20;;;;;;;;;;;;;;;;;;2143289;66;1290;-75
2021/07/07 10:35:46;;;;;;;;;;;;;;;;;;2143191;66;1289;-72
2021/07/07 10:38:11;;;;;;;;;;;;;;;;;;2143514;66;1164;-70
2021/07/07 10:40:40;;;;;;;;;;;;;;;;;;2143248;66;1206;-73
2021/07/07 10:43:06;;;;;;;;;;;;;;;;;;2141752;66;1188;-73
2021/07/07 10:45:32;;;;;;;;;;;;;;;;;;2143177;66;1060;-70
2021/07/07 10:48:16;;;;;;;;;;;;;;;;;;2143350;66;1270;-73
2021/07/07 10:50:41;;;;;;;;;;;;;;;;;;2143669;66;1968;-67
2021/07/07 10:53:20;;;;;;;;;;;;;;;;;;2142767;66;1219;-67
2021/07/07 10:55:46;;;;;;;;;;;;;;;;;;2143472;66;1221;-71
2021/07/07 10:58:24;;;;;;;;;;;;;;;;;;2142197;66;2289;-73
2021/07/07 11:00:49;;;;;;;;;;;;;;;;;;2143974;66;1463;-68
2021/07/07 11:03:31;;;;;;;;;;;;;;;;;;2142322;66;1085;-73
2021/07/07 11:05:57;;;;;;;;;;;;;;;;;;2142313;59;2017;-71
2021/07/07 11:08:27;;;;;;;;;;;;;;;;;;2138462;59;1992;-69
2021/07/07 11:10:59;;;;;;;;;;;;;;;;;;2136704;59;2277;-70
2021/07/07 11:13:25;;;;;;;;;;;;;;;;;;2141091;66;1201;-71
2021/07/07 11:15:50;;;;;;;;;;;;;;;;;;2142078;59;1891;-72
2021/07/07 11:18:17;;;;;;;;;;;;;;;;;;2143474;66;1503;-72
2021/07/07 11:20:44;;;;;;;;;;;;;;;;;;2137947;66;2575;-71
2021/07/07 11:23:11;;;;;;;;;;;;;;;;;;2140798;66;2027;-72
2021/07/07 11:25:37;;;;;;;;;;;;;;;;;;2140564;66;1793;-71
2021/07/07 11:28:03;;;;;;;;;;;;;;;;;;2141641;59;1905;-71
2021/07/07 11:30:29;;;;;;;;;;;;;;;;;;2141196;66;2086;-71
2021/07/07 11:33:02;;;;;;;;;;;;;;;;;;2142366;66;1659;-72
2021/07/07 11:35:30;;;;;;;;;;;;;;;;;;2141332;66;1361;-67
2021/07/07 11:37:56;;;;;;;;;;;;;;;;;;2143040;66;1576;-69
2021/07/07 11:40:22;;;;;;;;;;;;;;;;;;2142857;66;1624;-70
2021/07/07 11:43:04;;;;;;;;;;;;;;;;;;2143049;66;1412;-69
2021/07/07 11:45:34;;;;;;;;;;;;;;;;;;2143513;66;1351;-67
2021/07/07 11:50:32;;;;;;;;;;;;;;;;;;2141356;59;1977;-68
2021/07/07 11:53:05;;;;;;;;;;;;;;;;;;2141313;66;1855;-69
2021/07/07 11:55:51;;;;;;;;;;;;;;;;;;2142200;66;1511;-68
2021/07/07 11:58:19;;;;;;;;;;;;;;;;;;2136055;66;1965;-71
2021/07/07 12:00:44;;;;;;;;;;;;;;;;;;2141702;66;1360;-68
2021/07/07 12:03:10;;;;;;;;;;;;;;;;;;2141176;66;1163;-69
2021/07/07 12:05:35;;;;;;;;;;;;;;;;;;2141077;59;1988;-70
2021/07/07 12:08:16;;;;;;;;;;;;;;;;;;2141477;66;1305;-67
2021/07/07 12:10:42;;;;;;;;;;;;;;;;;;2142634;66;1937;-69
2021/07/07 12:13:33;;;;;;;;;;;;;;;;;;2141915;66;1139;-68
2021/07/07 12:16:12;;;;;;;;;;;;;;;;;;2142675;59;1840;-68
2021/07/07 12:18:37;;;;;;;;;;;;;;;;;;2141601;66;1392;-70
2021/07/07 12:21:02;;;;;;;;;;;;;;;;;;2139627;59;2463;-68
2021/07/07 12:23:27;;;;;;;;;;;;;;;;;;2142360;59;2550;-69
2021/07/07 12:25:59;;;;;;;;;;;;;;;;;;2143256;66;1814;-68
2021/07/07 12:28:24;;;;;;;;;;;;;;;;;;2141419;66;1217;-69
2021/07/07 12:30:50;;;;;;;;;;;;;;;;;;2141736;59;1983;-69
2021/07/07 12:33:15;;;;;;;;;;;;;;;;;;2141751;66;2047;-68
2021/07/07 12:35:45;;;;;;;;;;;;;;;;;;2142798;66;1468;-69
2021/07/07 12:38:10;;;;;;;;;;;;;;;;;;2141277;66;1311;-69
2021/07/07 12:40:35;;;;;;;;;;;;;;;;;;2141846;66;1347;-68
2021/07/07 12:43:14;;;;;;;;;;;;;;;;;;2141498;66;1287;-68
2021/07/07 12:45:39;;;;;;;;;;;;;;;;;;2141693;67;2063;-68
2021/07/07 12:48:05;;;;;;;;;;;;;;;;;;2140047;59;1918;-68
2021/07/07 12:50:38;;;;;;;;;;;;;;;;;;2140928;67;1935;-68
2021/07/07 12:53:04;;;;;;;;;;;;;;;;;;2140736;59;1750;-68
2021/07/07 12:55:29;;;;;;;;;;;;;;;;;;2141675;67;1267;-68
2021/07/07 12:57:55;;;;;;;;;;;;;;;;;;2143524;67;1246;-70
2021/07/07 13:00:20;;;;;;;;;;;;;;;;;;2140095;67;1278;-70
2021/07/07 13:02:49;;;;;;;;;;;;;;;;;;2143852;67;1148;-68
2021/07/07 13:05:14;;;;;;;;;;;;;;;;;;2140353;66;1223;-70
2021/07/07 13:07:39;;;;;;;;;;;;;;;;;;2142690;59;1230;-68
2021/07/07 13:10:04;;;;;;;;;;;;;;;;;;2144151;66;1211;-67
2021/07/07 13:12:30;;;;;;;;;;;;;;;;;;2142972;66;2068;-68
2021/07/07 13:14:56;;;;;;;;;;;;;;;;;;2141294;59;1292;-70
2021/07/07 13:17:22;;;;;;;;;;;;;;;;;;2138313;66;1934;-69
2021/07/07 13:19:56;;;;;;;;;;;;;;;;;;2140144;59;2081;-69
2021/07/07 13:22:22;;;;;;;;;;;;;;;;;;2139255;59;1817;-68
2021/07/07 13:24:47;;;;;;;;;;;;;;;;;;2139383;66;1403;-68
2021/07/07 13:27:19;;;;;;;;;;;;;;;;;;2140351;59;1966;-68
2021/07/07 13:29:47;;;;;;;;;;;;;;;;;;2138817;59;1643;-69
2021/07/07 13:32:15;;;;;;;;;;;;;;;;;;2140498;59;1983;-69
2021/07/07 13:34:48;;;;;;;;;;;;;;;;;;2139883;66;1530;-68
2021/07/07 13:37:15;;;;;;;;;;;;;;;;;;2143590;66;1137;-70
2021/07/07 13:39:41;;;;;;;;;;;;;;;;;;2144225;66;1169;-69
2021/07/07 13:42:07;;;;;;;;;;;;;;;;;;2143620;59;1249;-70
2021/07/07 13:44:32;;;;;;;;;;;;;;;;;;2141649;66;1133;-69
2021/07/07 13:46:57;;;;;;;;;;;;;;;;;;2144082;59;1286;-68
2021/07/07 13:49:23;;;;;;;;;;;;;;;;;;2143428;66;1217;-69
2021/07/07 13:51:48;;;;;;;;;;;;;;;;;;2142589;66;1925;-69
2021/07/07 13:54:13;;;;;;;;;;;;;;;;;;2141594;66;1148;-69
2021/07/07 13:56:38;;;;;;;;;;;;;;;;;;2142953;66;1536;-71
2021/07/07 13:59:03;;;;;;;;;;;;;;;;;;2143453;66;1009;-68
2021/07/07 14:01:29;;;;;;;;;;;;;;;;;;2142528;66;1240;-69
2021/07/07 14:03:54;;;;;;;;;;;;;;;;;;2141884;66;1413;-69
2021/07/07 14:06:19;;;;;;;;;;;;;;;;;;2141279;66;1763;-69
2021/07/07 14:08:44;;;;;;;;;;;;;;;;;;2142890;66;1511;-71
2021/07/07 14:11:09;;;;;;;;;;;;;;;;;;2142810;66;1995;-69
2021/07/07 14:13:35;;;;;;;;;;;;;;;;;;2142929;66;1145;-71
2021/07/07 14:16:01;;;;;;;;;;;;;;;;;;2142115;59;1536;-69
2021/07/07 14:18:26;;;;;;;;;;;;;;;;;;2140882;59;2059;-69
2021/07/07 14:20:51;;;;;;;;;;;;;;;;;;2141845;66;1293;-70
2021/07/07 14:23:17;;;;;;;;;;;;;;;;;;2141609;66;1550;-69
2021/07/07 14:25:42;;;;;;;;;;;;;;;;;;2141263;66;1561;-69
2021/07/07 14:28:07;;;;;;;;;;;;;;;;;;2142449;66;1287;-69
2021/07/07 14:30:33;;;;;;;;;;;;;;;;;;2146781;53;2795;-71
2021/07/07 14:32:58;;;;;;;;;;;;;;;;;;2138875;59;1399;-70
2021/07/07 14:35:23;;;;;;;;;;;;;;;;;;2137480;67;1074;-72
2021/07/07 14:37:49;;;;;;;;;;;;;;;;;;2137219;67;1091;-71
2021/07/07 14:40:14;;;;;;;;;;;;;;;;;;2137069;59;1762;-70
2021/07/07 14:42:39;;;;;;;;;;;;;;;;;;2135778;67;1142;-72
2021/07/07 14:45:05;;;;;;;;;;;;;;;;;;2133726;67;1436;-71
2021/07/07 14:47:30;;;;;;;;;;;;;;;;;;2132869;59;1352;-71
2021/07/07 14:49:55;;;;;;;;;;;;;;;;;;2132549;67;1234;-71
2021/07/07 14:52:21;;;;;;;;;;;;;;;;;;2130721;67;2101;-71
2021/07/07 14:54:46;;;;;;;;;;;;;;;;;;2131018;67;1099;-71
2021/07/07 14:57:12;;;;;;;;;;;;;;;;;;2131764;67;1025;-72
2021/07/07 14:59:37;;;;;;;;;;;;;;;;;;2133244;67;1069;-71
2021/07/07 15:02:02;;;;;;;;;;;;;;;;;;2131125;67;1136;-69
2021/07/07 15:04:28;;;;;;;;;;;;;;;;;;2133760;67;1140;-72
2021/07/07 15:06:53;;;;;;;;;;;;;;;;;;2133371;59;2298;-71
2021/07/07 15:09:19;;;;;;;;;;;;;;;;;;2134637;67;1128;-73
2021/07/07 15:11:44;;;;;;;;;;;;;;;;;;2132944;59;1973;-72
2021/07/07 15:14:09;;;;;;;;;;;;;;;;;;2132044;59;2345;-72
2021/07/07 15:16:35;;;;;;;;;;;;;;;;;;2130463;59;1813;-71
2021/07/07 15:19:00;;;;;;;;;;;;;;;;;;2131408;59;1689;-71
2021/07/07 15:21:26;;;;;;;;;;;;;;;;;;2132058;59;1940;-70
2021/07/07 15:23:51;;;;;;;;;;;;;;;;;;2133007;59;2344;-72
2021/07/07 15:26:16;;;;;;;;;;;;;;;;;;2131223;67;1192;-70
2021/07/07 15:28:47;;;;;;;;;;;;;;;;;;2132067;67;1958;-72
2021/07/07 15:31:12;;;;;;;;;;;;;;;;;;2133021;59;1929;-71
2021/07/07 15:33:38;;;;;;;;;;;;;;;;;;2132640;67;1440;-72
2021/07/07 15:36:03;;;;;;;;;;;;;;;;;;2131064;59;1375;-73
2021/07/07 15:38:29;;;;;;;;;;;;;;;;;;2133503;59;1893;-70
2021/07/07 15:40:54;;;;;;;;;;;;;;;;;;2133704;59;1966;-71
2021/07/07 15:43:19;;;;;;;;;;;;;;;;;;2132981;59;2348;-73
2021/07/07 15:45:44;;;;;;;;;;;;;;;;;;2132656;67;1186;-70
2021/07/07 15:48:09;;;;;;;;;;;;;;;;;;2131483;59;1342;-72
2021/07/07 15:50:36;;;;;;;;;;;;;;;;;;2132901;59;1924;-72
2021/07/07 15:53:02;;;;;;;;;;;;;;;;;;2132673;59;1744;-71
2021/07/07 15:55:27;;;;;;;;;;;;;;;;;;2132932;59;1152;-69
2021/07/07 15:57:53;;;;;;;;;;;;;;;;;;2132352;67;1282;-73
2021/07/07 16:00:19;;;;;;;;;;;;;;;;;;2133199;59;1230;-72
2021/07/07 16:02:44;;;;;;;;;;;;;;;;;;2132513;67;1375;-72
2021/07/07 16:05:09;;;;;;;;;;;;;;;;;;2131698;59;1271;-71
2021/07/07 16:07:34;;;;;;;;;;;;;;;;;;2132915;59;1655;-71
2021/07/07 16:10:00;;;;;;;;;;;;;;;;;;2132586;67;1236;-72
2021/07/07 16:12:25;;;;;;;;;;;;;;;;;;2132932;59;2082;-70
2021/07/07 16:14:50;;;;;;;;;;;;;;;;;;2133404;60;1264;-71
2021/07/07 16:17:15;;;;;;;;;;;;;;;;;;2132075;59;1622;-70
2021/07/07 16:19:40;;;;;;;;;;;;;;;;;;2133876;67;1180;-72
2021/07/07 16:22:05;;;;;;;;;;;;;;;;;;2132683;67;2008;-72
2021/07/07 16:24:31;;;;;;;;;;;;;;;;;;2132162;59;1641;-72
2021/07/07 16:26:57;;;;;;;;;;;;;;;;;;2132673;67;1323;-71
2021/07/07 16:29:22;;;;;;;;;;;;;;;;;;2133092;59;2020;-72
2021/07/07 16:31:47;;;;;;;;;;;;;;;;;;2132429;67;1933;-72
2021/07/07 16:34:12;;;;;;;;;;;;;;;;;;2132636;59;1831;-71
2021/07/07 16:36:38;;;;;;;;;;;;;;;;;;2133113;67;1530;-71
2021/07/07 16:39:04;;;;;;;;;;;;;;;;;;2132882;67;1273;-71
2021/07/07 16:41:29;;;;;;;;;;;;;;;;;;2132262;67;1566;-71
2021/07/07 16:43:54;;;;;;;;;;;;;;;;;;2132090;67;1535;-70
2021/07/07 16:46:20;;;;;;;;;;;;;;;;;;2133081;67;1537;-72
2021/07/07 16:48:45;;;;;;;;;;;;;;;;;;2132308;59;1720;-69
2021/07/07 16:51:10;;;;;;;;;;;;;;;;;;2131234;67;2002;-69
2021/07/07 16:53:36;;;;;;;;;;;;;;;;;;2132491;67;1884;-71
2021/07/07 16:56:01;;;;;;;;;;;;;;;;;;2131624;67;1591;-72
2021/07/07 16:58:26;;;;;;;;;;;;;;;;;;2132297;59;1876;-71